Time;durP1;ratioP1;P1;durP2;ratioP2;P2;SDS_P1;SDS_P2;PMS_P1;PMS_P2;Temp;Humidity;BMP_temperature;BMP_pressure;BME280_temperature;BME280_humidity;BME280_pressure;Samples;Min_cycle;Max_cycle;Signal;HPM_P1;HPM_P2
2023/03/29 00:01:17;;;;;;;4.50;3.90;;;8.90;99.90;;;;;;5011828;28;20403;-78
2023/03/29 00:03:44;;;;;;;4.10;3.80;;;9.00;99.90;;;;;;5000562;28;20428;-77
2023/03/29 00:06:14;;;;;;;4.27;3.90;;;9.20;99.90;;;;;;5014179;28;20421;-80
2023/03/29 00:08:41;;;;;;;4.17;3.90;;;9.10;99.90;;;;;;5030961;28;20816;-77
2023/03/29 00:11:07;;;;;;;4.90;4.50;;;9.10;99.90;;;;;;5027986;28;20427;-78
2023/03/29 00:13:33;;;;;;;4.37;4.07;;;9.00;99.90;;;;;;5011636;28;21394;-77
2023/03/29 00:15:59;;;;;;;4.60;4.30;;;9.10;99.90;;;;;;4994911;28;20426;-77
2023/03/29 00:18:25;;;;;;;4.20;3.90;;;9.10;99.90;;;;;;5011992;28;20567;-77
2023/03/29 00:20:55;;;;;;;4.40;4.00;;;9.10;99.90;;;;;;4995471;28;20179;-77
2023/03/29 00:23:21;;;;;;;5.23;4.70;;;9.20;99.90;;;;;;5011309;28;20434;-77
2023/03/29 00:25:47;;;;;;;4.60;4.30;;;9.20;99.90;;;;;;4995217;28;20818;-79
2023/03/29 00:28:13;;;;;;;4.20;3.80;;;9.20;99.90;;;;;;4997384;28;20543;-80
2023/03/29 00:30:40;;;;;;;4.70;4.33;;;9.10;99.90;;;;;;5019472;28;20520;-79
2023/03/29 00:33:06;;;;;;;4.70;4.20;;;9.10;99.90;;;;;;5006359;28;20431;-77
2023/03/29 00:35:32;;;;;;;4.50;4.20;;;9.20;99.90;;;;;;5026214;28;20430;-77
2023/03/29 00:37:58;;;;;;;4.70;4.40;;;9.20;99.90;;;;;;5012156;28;20441;-77
2023/03/29 00:40:25;;;;;;;4.10;3.80;;;9.30;99.90;;;;;;4994051;28;20422;-78
2023/03/29 00:42:51;;;;;;;4.40;4.00;;;9.10;99.90;;;;;;5012186;28;20462;-77
2023/03/29 00:45:29;;;;;;;3.83;3.53;;;9.10;99.90;;;;;;5011541;28;20432;-77
2023/03/29 00:48:01;;;;;;;4.37;3.97;;;9.10;99.90;;;;;;5012235;28;20205;-77
2023/03/29 00:50:40;;;;;;;4.40;4.20;;;9.00;99.90;;;;;;5011464;28;20789;-77
2023/03/29 00:53:08;;;;;;;4.20;3.80;;;9.00;99.90;;;;;;5012198;28;20433;-77
2023/03/29 00:55:45;;;;;;;3.90;3.70;;;9.00;99.90;;;;;;5011163;28;21049;-77
2023/03/29 00:58:13;;;;;;;4.37;4.07;;;9.00;99.90;;;;;;5012037;28;20567;-77
2023/03/29 01:00:47;;;;;;;5.07;4.30;;;9.00;99.90;;;;;;5010403;28;20399;-77
2023/03/29 01:03:23;;;;;;;5.10;4.60;;;9.10;99.90;;;;;;5011740;28;20426;-80
2023/03/29 01:05:53;;;;;;;4.43;4.10;;;8.70;99.90;;;;;;4994557;28;20433;-77
2023/03/29 01:08:26;;;;;;;4.80;3.73;;;8.70;99.90;;;;;;5011535;28;20439;-77
2023/03/29 01:11:05;;;;;;;4.40;4.10;;;8.70;99.90;;;;;;4997358;28;20445;-77
2023/03/29 01:13:42;;;;;;;4.63;3.97;;;8.80;99.90;;;;;;5015060;28;20452;-78
2023/03/29 01:16:11;;;;;;;4.40;4.10;;;8.90;99.90;;;;;;5001308;28;20448;-77
2023/03/29 01:18:37;;;;;;;4.10;3.80;;;8.90;99.90;;;;;;5017459;28;20995;-78
2023/03/29 01:21:19;;;;;;;4.07;3.77;;;9.00;99.90;;;;;;5019241;28;20422;-78
2023/03/29 01:24:23;;;;;;;4.37;3.23;;;9.10;99.90;;;;;;4998362;28;20266;-78
2023/03/29 01:27:14;;;;;;;4.00;3.70;;;9.10;99.90;;;;;;4981467;28;20453;-78
2023/03/29 01:29:44;;;;;;;4.20;3.90;;;9.10;99.90;;;;;;5014728;28;20425;-78
2023/03/29 01:32:36;;;;;;;4.00;3.70;;;9.20;99.90;;;;;;5015447;28;20426;-78
2023/03/29 01:35:11;;;;;;;4.43;3.90;;;9.20;99.90;;;;;;5011472;28;20469;-77
2023/03/29 01:37:49;;;;;;;3.67;3.30;;;9.20;99.90;;;;;;5021656;28;20483;-77
2023/03/29 01:40:15;;;;;;;3.63;3.33;;;9.20;99.90;;;;;;4998054;28;20434;-80
2023/03/29 01:43:10;;;;;;;4.00;3.70;;;9.30;99.90;;;;;;5015664;28;20512;-77
2023/03/29 01:46:00;;;;;;;4.27;3.97;;;9.30;99.90;;;;;;4996764;28;20474;-77
2023/03/29 01:48:43;;;;;;;7.90;3.97;;;9.40;99.90;;;;;;4982016;28;20503;-77
2023/03/29 01:51:15;;;;;;;4.00;3.23;;;9.40;99.90;;;;;;4997882;28;20425;-77
2023/03/29 01:53:55;;;;;;;3.27;3.07;;;9.30;99.90;;;;;;5024232;28;20422;-77
2023/03/29 01:56:25;;;;;;;4.23;3.83;;;9.30;99.90;;;;;;4998114;28;20428;-78
2023/03/29 01:59:02;;;;;;;4.10;3.77;;;9.30;99.90;;;;;;5013625;28;20449;-77
2023/03/29 02:01:36;;;;;;;5.33;3.50;;;9.40;99.90;;;;;;4991563;28;20436;-78
2023/03/29 02:04:08;;;;;;;3.77;3.47;;;9.40;99.90;;;;;;5014956;28;20421;-77
2023/03/29 02:06:36;;;;;;;5.30;3.40;;;9.50;99.90;;;;;;4980365;28;20742;-77
2023/03/29 02:09:03;;;;;;;4.17;3.80;;;9.60;99.90;;;;;;4997390;28;20418;-77
2023/03/29 02:11:29;;;;;;;3.80;3.50;;;9.50;99.90;;;;;;5013933;28;20428;-77
2023/03/29 02:13:56;;;;;;;4.30;3.97;;;9.50;99.90;;;;;;5014818;28;20423;-77
2023/03/29 02:16:22;;;;;;;3.53;3.30;;;9.30;99.90;;;;;;5019101;28;20424;-78
2023/03/29 02:18:51;;;;;;;4.70;3.50;;;9.30;99.90;;;;;;5015153;28;20783;-78
2023/03/29 02:21:35;;;;;;;4.20;3.60;;;9.40;99.90;;;;;;4996724;28;20179;-80
2023/03/29 02:24:06;;;;;;;5.03;3.80;;;9.40;99.90;;;;;;4997124;28;20477;-76
2023/03/29 02:26:32;;;;;;;4.03;3.70;;;9.40;99.90;;;;;;5019251;28;20421;-77
2023/03/29 02:28:57;;;;;;;3.70;3.40;;;9.40;99.90;;;;;;5025941;28;20426;-75
2023/03/29 02:31:58;;;;;;;4.40;4.10;;;9.30;99.90;;;;;;5014128;28;20402;-76
2023/03/29 02:34:29;;;;;;;4.63;4.20;;;9.30;99.90;;;;;;4991407;28;20195;-77
2023/03/29 02:37:05;;;;;;;3.90;3.60;;;9.40;99.90;;;;;;5014264;28;20429;-77
2023/03/29 02:39:33;;;;;;;4.60;4.20;;;9.40;99.90;;;;;;5013461;28;20422;-77
2023/03/29 02:42:01;;;;;;;4.30;3.90;;;9.40;99.90;;;;;;5010736;28;20465;-80
2023/03/29 02:44:30;;;;;;;4.10;3.80;;;9.50;99.90;;;;;;5052444;28;20477;-78
2023/03/29 02:47:19;;;;;;;4.30;3.90;;;9.50;99.90;;;;;;5047209;28;20448;-77
2023/03/29 02:49:45;;;;;;;3.73;3.43;;;9.60;99.90;;;;;;5043514;28;20475;-77
2023/03/29 02:52:16;;;;;;;4.30;4.00;;;9.60;99.90;;;;;;5034020;28;20441;-77
2023/03/29 02:54:44;;;;;;;4.67;4.30;;;9.60;99.90;;;;;;5033032;28;20476;-77
2023/03/29 02:57:11;;;;;;;4.40;3.97;;;9.60;99.90;;;;;;5033596;28;20417;-77
2023/03/29 02:59:37;;;;;;;3.80;3.50;;;9.60;99.90;;;;;;5032104;28;20409;-78
2023/03/29 03:02:04;;;;;;;4.97;4.37;;;9.60;99.90;;;;;;5016202;28;20433;-78
2023/03/29 03:04:30;;;;;;;7.00;4.30;;;9.60;99.90;;;;;;5032843;28;20424;-78
2023/03/29 03:06:56;;;;;;;4.40;4.00;;;9.60;99.90;;;;;;5042667;28;20478;-77
2023/03/29 03:09:22;;;;;;;3.70;3.40;;;9.60;99.90;;;;;;5053460;28;20400;-79
2023/03/29 03:11:48;;;;;;;3.93;3.63;;;9.60;99.90;;;;;;5036409;28;20500;-77
2023/03/29 03:14:15;;;;;;;4.20;3.70;;;9.60;99.90;;;;;;5036495;28;20538;-78
2023/03/29 03:16:41;;;;;;;4.73;4.33;;;9.50;99.90;;;;;;5050408;28;20748;-77
2023/03/29 03:19:08;;;;;;;5.50;3.90;;;9.60;99.90;;;;;;5032954;28;20434;-78
2023/03/29 03:21:36;;;;;;;4.53;4.13;;;9.40;99.90;;;;;;5040495;28;20425;-77
2023/03/29 03:24:02;;;;;;;4.27;3.97;;;9.50;99.90;;;;;;5033293;28;20402;-77
2023/03/29 03:26:31;;;;;;;4.10;3.80;;;9.50;99.90;;;;;;5033121;28;20784;-79
2023/03/29 03:28:57;;;;;;;3.90;3.67;;;9.50;99.90;;;;;;5032980;28;20476;-77
2023/03/29 03:31:23;;;;;;;5.30;4.60;;;9.40;99.90;;;;;;5032620;28;20908;-79
2023/03/29 03:33:48;;;;;;;8.63;4.47;;;9.40;99.90;;;;;;5030825;28;20170;-78
2023/03/29 03:36:14;;;;;;;3.90;3.60;;;9.50;99.90;;;;;;5033721;28;20459;-77
2023/03/29 03:38:40;;;;;;;4.20;3.90;;;9.40;99.90;;;;;;5040725;28;20580;-77
2023/03/29 03:41:06;;;;;;;5.40;4.90;;;9.20;99.90;;;;;;5031504;28;20405;-77
2023/03/29 03:43:32;;;;;;;3.87;3.60;;;9.20;99.90;;;;;;5012294;28;20438;-77
2023/03/29 03:46:02;;;;;;;5.90;3.93;;;9.40;99.90;;;;;;5013255;28;20193;-77
2023/03/29 03:48:27;;;;;;;5.77;5.07;;;9.40;99.90;;;;;;5014603;28;20556;-78
2023/03/29 03:50:55;;;;;;;4.37;4.07;;;9.50;99.90;;;;;;5013701;28;20860;-78
2023/03/29 03:53:23;;;;;;;5.07;4.77;;;9.50;99.90;;;;;;5013084;28;20258;-77
2023/03/29 03:55:50;;;;;;;3.40;3.10;;;9.50;99.90;;;;;;5020333;28;20425;-78
2023/03/29 03:58:16;;;;;;;3.97;3.13;;;9.50;99.90;;;;;;5033067;28;20413;-77
2023/03/29 04:00:43;;;;;;;3.63;3.43;;;9.50;99.90;;;;;;5014712;28;20452;-77
2023/03/29 04:03:09;;;;;;;3.70;3.47;;;9.60;99.90;;;;;;5012856;28;20756;-77
2023/03/29 04:05:39;;;;;;;3.50;3.30;;;9.50;99.90;;;;;;4994670;28;20401;-79
2023/03/29 04:08:05;;;;;;;5.17;4.77;;;9.60;99.90;;;;;;5013293;28;20464;-77
2023/03/29 04:10:32;;;;;;;4.30;4.10;;;9.70;99.90;;;;;;4994396;28;20980;-78
2023/03/29 04:13:03;;;;;;;4.77;4.37;;;9.70;99.90;;;;;;4997298;28;20429;-77
2023/03/29 04:15:30;;;;;;;6.20;5.67;;;9.70;99.90;;;;;;5019632;28;20812;-78
2023/03/29 04:17:56;;;;;;;4.33;3.70;;;9.70;99.90;;;;;;5031486;28;20428;-77
2023/03/29 04:20:23;;;;;;;4.30;4.00;;;9.70;99.90;;;;;;5032829;28;20778;-77
2023/03/29 04:22:49;;;;;;;3.70;3.40;;;9.70;99.90;;;;;;5011918;28;20521;-77
2023/03/29 04:25:15;;;;;;;4.17;3.70;;;9.70;99.90;;;;;;5012326;28;20964;-77
2023/03/29 04:27:41;;;;;;;5.57;4.63;;;9.80;99.90;;;;;;5011181;28;20581;-78
2023/03/29 04:30:08;;;;;;;6.13;5.63;;;9.80;99.90;;;;;;5013969;28;20798;-77
2023/03/29 04:32:34;;;;;;;4.77;4.30;;;9.80;99.90;;;;;;5018316;28;20178;-78
2023/03/29 04:35:01;;;;;;;6.13;5.50;;;9.90;99.90;;;;;;5026143;28;20413;-78
2023/03/29 04:37:28;;;;;;;5.50;4.87;;;9.90;99.90;;;;;;4978012;28;20434;-79
2023/03/29 04:39:54;;;;;;;3.77;3.50;;;10.00;99.90;;;;;;5026766;28;20426;-78
2023/03/29 04:42:20;;;;;;;7.23;3.70;;;9.90;99.90;;;;;;5030799;28;20460;-77
2023/03/29 04:44:46;;;;;;;5.07;4.30;;;10.00;99.90;;;;;;5031044;28;21029;-77
2023/03/29 04:47:12;;;;;;;5.07;4.47;;;10.00;99.90;;;;;;5031933;28;20207;-78
2023/03/29 04:49:38;;;;;;;6.70;6.20;;;10.10;99.90;;;;;;5029062;28;20484;-78
2023/03/29 04:52:04;;;;;;;7.67;7.07;;;10.10;99.90;;;;;;5032413;28;20195;-77
2023/03/29 04:54:30;;;;;;;5.00;4.60;;;10.10;99.90;;;;;;5029960;28;20500;-78
2023/03/29 04:56:56;;;;;;;8.60;7.93;;;10.00;99.90;;;;;;5035488;28;20425;-77
2023/03/29 04:59:22;;;;;;;5.47;4.67;;;10.10;99.90;;;;;;5039248;28;20862;-78
2023/03/29 05:01:48;;;;;;;7.63;7.00;;;10.10;99.90;;;;;;5032117;28;20320;-78
2023/03/29 05:04:13;;;;;;;4.23;3.87;;;10.10;99.90;;;;;;5043988;28;20202;-77
2023/03/29 05:06:40;;;;;;;6.30;5.80;;;10.00;99.90;;;;;;5049452;28;20667;-78
2023/03/29 05:09:07;;;;;;;5.10;4.70;;;10.00;99.90;;;;;;5052016;28;20263;-77
2023/03/29 05:11:33;;;;;;;5.70;5.20;;;10.00;99.90;;;;;;5032447;28;20421;-78
2023/03/29 05:14:02;;;;;;;6.43;5.93;;;10.10;99.90;;;;;;5051030;28;20420;-77
2023/03/29 05:16:28;;;;;;;6.83;6.40;;;10.00;99.90;;;;;;5051971;28;20415;-79
2023/03/29 05:18:55;;;;;;;6.27;5.87;;;10.00;99.90;;;;;;5045631;28;20419;-78
2023/03/29 05:21:22;;;;;;;7.40;6.60;;;10.00;99.90;;;;;;5044255;28;20421;-77
2023/03/29 05:23:48;;;;;;;4.67;4.20;;;10.10;99.90;;;;;;5040324;28;20429;-76
2023/03/29 05:26:14;;;;;;;6.93;6.33;;;10.00;99.90;;;;;;5052530;28;20401;-75
2023/03/29 05:28:40;;;;;;;6.20;5.60;;;10.00;99.90;;;;;;5039884;28;20207;-76
2023/03/29 05:31:07;;;;;;;9.25;8.50;;;9.90;99.90;;;;;;5031430;28;20409;-76
2023/03/29 05:33:34;;;;;;;6.87;6.27;;;9.90;99.90;;;;;;5046028;28;20573;-77
2023/03/29 05:36:08;;;;;;;6.03;5.50;;;10.00;99.90;;;;;;5045927;28;20436;-78
2023/03/29 05:38:34;;;;;;;8.43;7.37;;;10.40;99.90;;;;;;5049784;28;20430;-78
2023/03/29 05:41:00;;;;;;;6.97;6.47;;;10.80;99.90;;;;;;5049735;28;20418;-77
2023/03/29 05:43:27;;;;;;;8.10;5.83;;;11.20;99.90;;;;;;5002124;28;20788;-79
2023/03/29 05:45:53;;;;;;;6.50;5.90;;;11.50;99.90;;;;;;4994659;28;20435;-79
2023/03/29 05:48:21;;;;;;;6.90;6.30;;;11.90;99.90;;;;;;5013891;28;20855;-78
2023/03/29 05:50:48;;;;;;;8.30;7.03;;;12.20;99.90;;;;;;5029686;28;20436;-78
2023/03/29 05:53:15;;;;;;;8.87;7.80;;;12.50;99.90;;;;;;5031080;28;20418;-79
2023/03/29 05:55:41;;;;;;;5.60;5.00;;;12.80;99.90;;;;;;5010465;28;20433;-79
2023/03/29 05:58:07;;;;;;;7.05;6.55;;;13.00;99.90;;;;;;5020990;28;20417;-79
2023/03/29 06:00:35;;;;;;;4.70;4.30;;;13.20;99.90;;;;;;5015737;28;20177;-78
2023/03/29 06:03:02;;;;;;;6.80;6.30;;;13.40;99.90;;;;;;5032258;28;20914;-77
2023/03/29 06:05:28;;;;;;;5.83;5.23;;;13.60;99.90;;;;;;5034461;28;20500;-76
2023/03/29 06:07:55;;;;;;;8.70;8.00;;;13.50;97.50;;;;;;5034805;28;20470;-76
2023/03/29 06:10:24;;;;;;;6.30;5.70;;;13.20;97.30;;;;;;5033125;28;20416;-77
2023/03/29 06:12:50;;;;;;;7.67;7.17;;;12.80;98.60;;;;;;5032948;28;20427;-73
2023/03/29 06:15:16;;;;;;;5.23;4.77;;;12.30;99.80;;;;;;5035285;28;20454;-74
2023/03/29 06:17:46;;;;;;;5.77;5.37;;;12.00;99.90;;;;;;5033706;28;20590;-75
2023/03/29 06:20:13;;;;;;;7.80;7.20;;;11.70;99.90;;;;;;5030827;28;20428;-74
2023/03/29 06:22:40;;;;;;;5.40;5.00;;;11.50;99.90;;;;;;5020234;28;20435;-75
2023/03/29 06:25:09;;;;;;;7.70;7.10;;;11.40;99.90;;;;;;5027200;28;20901;-75
2023/03/29 06:27:35;;;;;;;6.90;6.30;;;11.30;99.90;;;;;;5027908;28;20567;-75
2023/03/29 06:30:02;;;;;;;8.30;7.60;;;11.30;99.90;;;;;;5035064;28;20406;-75
2023/03/29 06:32:28;;;;;;;6.33;5.83;;;11.20;99.90;;;;;;5033986;28;20424;-74
2023/03/29 06:34:54;;;;;;;7.03;5.90;;;11.20;99.90;;;;;;5033105;28;20917;-75
2023/03/29 06:37:22;;;;;;;9.30;8.50;;;11.20;99.90;;;;;;5035003;28;20173;-75
2023/03/29 06:39:51;;;;;;;7.27;6.70;;;11.10;99.90;;;;;;5033064;28;20424;-75
2023/03/29 06:42:20;;;;;;;7.83;7.20;;;11.00;99.90;;;;;;5032259;28;20478;-75
2023/03/29 06:44:46;;;;;;;6.60;6.10;;;11.00;99.90;;;;;;5025961;28;20430;-75
2023/03/29 06:47:16;;;;;;;8.00;6.43;;;11.00;99.90;;;;;;5033357;28;20487;-75
2023/03/29 06:49:42;;;;;;;8.40;5.77;;;11.00;99.90;;;;;;5016009;28;20431;-75
2023/03/29 06:52:09;;;;;;;5.67;5.17;;;11.00;99.90;;;;;;5015640;28;20838;-75
2023/03/29 06:54:35;;;;;;;6.53;5.93;;;11.00;99.90;;;;;;5029946;28;20428;-77
2023/03/29 06:57:03;;;;;;;5.93;5.07;;;10.90;99.90;;;;;;5027499;28;20485;-75
2023/03/29 06:59:33;;;;;;;6.53;6.03;;;10.90;99.90;;;;;;4996239;28;20500;-77
2023/03/29 07:01:59;;;;;;;6.77;6.07;;;10.90;99.90;;;;;;5004828;28;20529;-75
2023/03/29 07:04:24;;;;;;;7.90;7.30;;;11.00;99.90;;;;;;5014782;28;20948;-75
2023/03/29 07:07:00;;;;;;;8.63;6.77;;;10.90;99.90;;;;;;5027688;28;20166;-76
2023/03/29 07:09:30;;;;;;;7.67;6.97;;;11.00;99.90;;;;;;5032828;28;20174;-75
2023/03/29 07:11:57;;;;;;;10.07;7.80;;;11.00;99.90;;;;;;5032999;28;20396;-75
2023/03/29 07:14:28;;;;;;;5.87;5.37;;;11.10;99.90;;;;;;5018386;28;20420;-76
2023/03/29 07:16:55;;;;;;;7.03;6.40;;;11.10;99.90;;;;;;5020951;28;21059;-77
2023/03/29 07:19:23;;;;;;;7.83;7.13;;;11.10;99.90;;;;;;5024254;28;20454;-75
2023/03/29 07:21:50;;;;;;;5.77;5.27;;;10.90;99.90;;;;;;5021776;28;20417;-76
2023/03/29 07:24:16;;;;;;;7.50;5.73;;;10.90;99.90;;;;;;5032689;28;20425;-76
2023/03/29 07:26:42;;;;;;;8.57;7.80;;;10.90;99.90;;;;;;5033359;28;20409;-76
2023/03/29 07:29:08;;;;;;;7.43;5.53;;;10.90;99.90;;;;;;5032040;28;20422;-76
2023/03/29 07:31:37;;;;;;;6.33;5.83;;;10.80;99.90;;;;;;5031248;28;20415;-76
2023/03/29 07:34:05;;;;;;;5.70;5.30;;;10.70;99.90;;;;;;5014065;28;20488;-76
2023/03/29 07:36:33;;;;;;;5.80;5.33;;;10.80;99.90;;;;;;5033798;28;20405;-75
2023/03/29 07:39:00;;;;;;;5.90;5.37;;;10.70;99.90;;;;;;5032440;28;20427;-75
2023/03/29 07:41:26;;;;;;;6.70;6.20;;;10.70;99.90;;;;;;5020467;28;20458;-75
2023/03/29 07:43:53;;;;;;;5.50;5.10;;;10.70;99.90;;;;;;5052957;28;20393;-76
2023/03/29 07:46:19;;;;;;;6.20;5.47;;;10.80;99.90;;;;;;5050115;28;20827;-76
2023/03/29 07:48:44;;;;;;;8.17;4.97;;;10.90;99.90;;;;;;5033030;28;20935;-75
2023/03/29 07:51:10;;;;;;;6.20;5.70;;;10.90;99.90;;;;;;5039034;28;20420;-75
2023/03/29 07:53:37;;;;;;;6.73;5.00;;;10.80;99.90;;;;;;5033451;28;20168;-78
2023/03/29 07:56:03;;;;;;;6.17;5.77;;;10.90;99.90;;;;;;5041350;28;20427;-76
2023/03/29 07:58:29;;;;;;;5.70;5.30;;;10.90;99.90;;;;;;5041874;28;20430;-76
2023/03/29 08:00:55;;;;;;;5.93;5.40;;;11.00;99.90;;;;;;5050950;28;20423;-75
2023/03/29 08:03:21;;;;;;;7.40;5.50;;;11.00;99.90;;;;;;5042588;28;20527;-77
2023/03/29 08:05:47;;;;;;;6.07;5.27;;;11.10;99.90;;;;;;5035837;28;20242;-75
2023/03/29 08:08:13;;;;;;;5.10;4.70;;;11.00;99.90;;;;;;5039902;28;20467;-76
2023/03/29 08:10:41;;;;;;;5.60;4.40;;;11.10;99.90;;;;;;5019341;28;20428;-78
2023/03/29 08:13:09;;;;;;;5.87;5.27;;;11.10;99.90;;;;;;5043954;28;20432;-76
2023/03/29 08:15:37;;;;;;;5.50;5.10;;;11.20;99.90;;;;;;5043139;28;20825;-76
2023/03/29 08:18:04;;;;;;;5.07;4.77;;;11.10;99.90;;;;;;5044429;28;20426;-76
2023/03/29 08:20:29;;;;;;;5.20;4.80;;;11.20;99.90;;;;;;5046316;28;20421;-76
2023/03/29 08:22:55;;;;;;;5.30;4.80;;;11.20;99.90;;;;;;5031361;28;20433;-77
2023/03/29 08:25:21;;;;;;;5.30;4.87;;;11.30;99.90;;;;;;5052933;28;20169;-76
2023/03/29 08:27:47;;;;;;;8.13;7.37;;;11.40;99.90;;;;;;5035910;28;20462;-76
2023/03/29 08:30:13;;;;;;;5.60;5.13;;;11.30;99.90;;;;;;5032558;28;20495;-76
2023/03/29 08:32:40;;;;;;;5.60;5.20;;;11.30;99.90;;;;;;5030885;28;20177;-78
2023/03/29 08:35:08;;;;;;;6.27;5.77;;;11.40;99.90;;;;;;5046670;28;20423;-76
2023/03/29 08:37:35;;;;;;;6.07;5.43;;;11.50;99.90;;;;;;5041875;28;20458;-76
2023/03/29 08:40:01;;;;;;;5.60;4.87;;;11.60;99.90;;;;;;5031945;28;20443;-75
2023/03/29 08:42:52;;;;;;;7.90;6.37;;;11.70;99.90;;;;;;5019717;28;20507;-75
2023/03/29 08:45:37;;;;;;;5.03;4.63;;;11.80;99.90;;;;;;5014093;28;20456;-76
2023/03/29 08:48:06;;;;;;;6.00;5.60;;;11.80;99.90;;;;;;5011827;28;20459;-75
2023/03/29 08:50:43;;;;;;;5.40;4.97;;;11.80;99.90;;;;;;4995103;28;20535;-75
2023/03/29 08:53:30;;;;;;;6.20;4.80;;;11.80;99.90;;;;;;5013230;28;20956;-75
2023/03/29 08:55:58;;;;;;;4.67;4.37;;;11.70;99.90;;;;;;5011746;28;20444;-76
2023/03/29 08:58:30;;;;;;;4.60;4.30;;;11.80;99.90;;;;;;5011982;28;20429;-75
2023/03/29 09:00:58;;;;;;;5.10;4.60;;;11.90;99.90;;;;;;5012275;28;20428;-75
2023/03/29 09:03:29;;;;;;;4.90;4.57;;;11.90;99.90;;;;;;5004638;28;20428;-76
2023/03/29 09:06:19;;;;;;;5.20;4.70;;;12.00;99.90;;;;;;5026955;28;20830;-76
2023/03/29 09:08:46;;;;;;;4.93;4.40;;;11.90;99.90;;;;;;5023240;28;20448;-77
2023/03/29 09:11:45;;;;;;;5.43;5.13;;;12.00;99.90;;;;;;4995487;28;20421;-76
2023/03/29 09:14:29;;;;;;;5.00;4.47;;;12.00;99.90;;;;;;4995343;28;20417;-75
2023/03/29 09:17:14;;;;;;;6.60;4.57;;;12.10;99.90;;;;;;5011911;28;20423;-76
2023/03/29 09:19:58;;;;;;;4.47;3.87;;;12.00;99.90;;;;;;4994690;28;20432;-76
2023/03/29 09:22:42;;;;;;;5.03;4.03;;;12.10;99.90;;;;;;5029986;28;20454;-75
2023/03/29 09:25:43;;;;;;;4.83;4.53;;;12.10;99.90;;;;;;5003142;28;20525;-75
2023/03/29 09:28:13;;;;;;;5.63;5.13;;;12.10;99.90;;;;;;5012101;28;20447;-75
2023/03/29 09:30:41;;;;;;;5.47;4.90;;;12.10;99.90;;;;;;5012619;28;20906;-75
2023/03/29 09:33:22;;;;;;;7.50;6.90;;;12.10;99.90;;;;;;5015449;28;20461;-75
2023/03/29 09:36:01;;;;;;;5.00;4.60;;;12.20;99.90;;;;;;5015400;28;20460;-75
2023/03/29 09:38:30;;;;;;;4.30;4.00;;;12.30;99.90;;;;;;5016682;28;20384;-75
2023/03/29 09:41:25;;;;;;;5.20;4.80;;;12.20;99.90;;;;;;5017603;28;20806;-76
2023/03/29 09:43:53;;;;;;;5.33;4.80;;;12.20;99.90;;;;;;4986698;28;20506;-76
2023/03/29 09:46:39;;;;;;;5.87;5.37;;;12.20;99.90;;;;;;5015681;28;20441;-76
2023/03/29 09:49:16;;;;;;;6.63;6.13;;;12.30;99.90;;;;;;5015662;28;20467;-76
2023/03/29 09:51:44;;;;;;;5.93;5.43;;;12.30;99.90;;;;;;5035523;28;20420;-75
2023/03/29 09:54:11;;;;;;;9.40;5.27;;;12.40;99.90;;;;;;5003762;28;20769;-76
2023/03/29 09:56:38;;;;;;;7.00;5.33;;;12.40;99.90;;;;;;5015551;28;20429;-76
2023/03/29 09:59:04;;;;;;;4.70;4.30;;;12.50;99.90;;;;;;5014777;28;20775;-76
2023/03/29 10:01:40;;;;;;;6.60;5.50;;;12.60;99.90;;;;;;5016168;28;20800;-76
2023/03/29 10:04:08;;;;;;;4.53;4.20;;;12.70;99.90;;;;;;5015089;28;20426;-76
2023/03/29 10:06:35;;;;;;;5.70;5.10;;;12.70;99.90;;;;;;5015368;28;20458;-76
2023/03/29 10:09:02;;;;;;;5.57;4.30;;;12.90;99.90;;;;;;4997677;28;20449;-76
2023/03/29 10:11:29;;;;;;;5.80;5.40;;;12.80;99.90;;;;;;4997545;28;20496;-76
2023/03/29 10:14:03;;;;;;;4.77;4.37;;;12.80;99.90;;;;;;5014568;28;20818;-76
2023/03/29 10:16:35;;;;;;;6.63;4.50;;;12.90;99.90;;;;;;4997847;28;20445;-76
2023/03/29 10:19:20;;;;;;;5.30;4.30;;;12.90;99.90;;;;;;4997745;28;20384;-76
2023/03/29 10:21:53;;;;;;;5.50;5.00;;;12.90;99.90;;;;;;4997163;28;20417;-80
2023/03/29 10:24:24;;;;;;;6.60;5.20;;;12.90;99.90;;;;;;5008524;28;20481;-76
2023/03/29 10:26:55;;;;;;;4.80;4.40;;;12.90;99.90;;;;;;4999433;28;20829;-76
2023/03/29 10:29:24;;;;;;;4.40;4.10;;;12.90;99.90;;;;;;4998592;28;20474;-76
2023/03/29 10:31:50;;;;;;;4.43;4.07;;;13.00;99.90;;;;;;5015340;28;20456;-76
2023/03/29 10:34:17;;;;;;;5.00;4.60;;;12.90;99.90;;;;;;5023640;28;20418;-76
2023/03/29 10:36:59;;;;;;;4.13;3.83;;;12.90;99.90;;;;;;5032348;28;20399;-76
2023/03/29 10:39:31;;;;;;;5.53;5.03;;;13.00;99.90;;;;;;4998143;28;20774;-76
2023/03/29 10:41:58;;;;;;;5.33;4.83;;;13.00;99.90;;;;;;5013581;28;20779;-76
2023/03/29 10:44:28;;;;;;;5.40;5.00;;;12.90;99.90;;;;;;4996954;28;20895;-76
2023/03/29 10:46:54;;;;;;;5.40;5.00;;;13.00;99.90;;;;;;5014399;28;20400;-76
2023/03/29 10:49:21;;;;;;;5.53;5.03;;;12.90;99.90;;;;;;5034799;28;20414;-76
2023/03/29 10:51:49;;;;;;;5.50;5.03;;;13.10;99.90;;;;;;5033230;28;20186;-80
2023/03/29 10:54:19;;;;;;;5.03;4.63;;;13.20;99.90;;;;;;5031370;28;20440;-76
2023/03/29 10:56:54;;;;;;;4.90;4.50;;;13.30;99.90;;;;;;5013982;28;20441;-76
2023/03/29 10:59:47;;;;;;;5.10;4.70;;;13.30;99.90;;;;;;5015136;28;20397;-76
2023/03/29 11:02:16;;;;;;;4.87;4.47;;;13.40;99.90;;;;;;4997359;28;20420;-76
2023/03/29 11:04:45;;;;;;;5.07;4.60;;;13.40;99.90;;;;;;5008301;28;20435;-76
2023/03/29 11:07:34;;;;;;;5.63;5.03;;;13.40;99.90;;;;;;5027757;28;20452;-76
2023/03/29 11:10:00;;;;;;;4.97;4.57;;;13.20;99.90;;;;;;5014119;28;20401;-76
2023/03/29 11:12:33;;;;;;;5.90;5.40;;;13.40;99.90;;;;;;4996384;28;20437;-76
2023/03/29 11:15:13;;;;;;;6.00;5.43;;;13.40;99.90;;;;;;5013627;28;20428;-76
2023/03/29 11:18:26;;;;;;;6.03;5.30;;;13.60;99.90;;;;;;5014053;28;20431;-76
2023/03/29 11:21:24;;;;;;;7.17;6.03;;;13.70;99.90;;;;;;4995948;28;20662;-76
2023/03/29 11:23:59;;;;;;;5.53;5.23;;;13.90;99.90;;;;;;5012638;28;20431;-76
2023/03/29 11:26:40;;;;;;;6.10;5.70;;;13.90;99.90;;;;;;5014152;28;20810;-76
2023/03/29 11:29:18;;;;;;;6.07;5.57;;;14.00;99.90;;;;;;5012972;28;20457;-76
2023/03/29 11:32:02;;;;;;;6.20;5.80;;;14.10;99.90;;;;;;5013781;28;20433;-77
2023/03/29 11:34:52;;;;;;;6.60;6.10;;;14.30;99.90;;;;;;5014146;28;20417;-77
2023/03/29 11:37:44;;;;;;;4.77;4.47;;;14.40;99.90;;;;;;5014210;28;20394;-77
2023/03/29 11:40:48;;;;;;;7.50;5.37;;;14.60;99.90;;;;;;4995122;28;20683;-77
2023/03/29 11:43:29;;;;;;;4.63;4.33;;;14.90;99.90;;;;;;4955913;28;20474;-77
2023/03/29 11:46:01;;;;;;;4.77;4.33;;;15.10;99.90;;;;;;4952972;28;20527;-78
2023/03/29 11:49:04;;;;;;;8.40;4.33;;;15.20;99.90;;;;;;4985366;28;20479;-78
2023/03/29 11:51:53;;;;;;;7.20;6.70;;;15.30;99.90;;;;;;5031941;28;20466;-78
2023/03/29 11:54:30;;;;;;;6.80;3.97;;;15.40;99.90;;;;;;5038921;28;20458;-77
2023/03/29 11:57:18;;;;;;;6.70;4.47;;;15.50;99.90;;;;;;5032765;28;20460;-77
2023/03/29 11:59:51;;;;;;;6.77;6.37;;;15.60;99.90;;;;;;5033047;28;20424;-76
2023/03/29 12:02:16;;;;;;;6.80;6.40;;;15.80;99.90;;;;;;5033402;28;20435;-76
2023/03/29 12:04:49;;;;;;;8.90;8.20;;;16.10;99.90;;;;;;5033464;28;20400;-76
2023/03/29 12:07:38;;;;;;;5.87;5.47;;;16.30;99.90;;;;;;5032419;28;20213;-77
2023/03/29 12:10:13;;;;;;;7.70;4.70;;;16.30;99.20;;;;;;5032549;28;20425;-77
2023/03/29 12:12:46;;;;;;;6.20;5.47;;;16.40;97.30;;;;;;5014815;28;20523;-77
2023/03/29 12:15:28;;;;;;;5.07;4.70;;;16.30;97.20;;;;;;5032502;28;20416;-78
2023/03/29 12:18:13;;;;;;;7.93;7.23;;;16.30;97.90;;;;;;5032645;28;20421;-78
2023/03/29 12:20:39;;;;;;;6.63;6.13;;;16.20;97.50;;;;;;5032736;28;20590;-77
2023/03/29 12:23:07;;;;;;;5.30;4.80;;;16.10;97.50;;;;;;5032001;28;20436;-77
2023/03/29 12:25:51;;;;;;;5.83;5.43;;;16.20;98.70;;;;;;5033686;28;20735;-77
2023/03/29 12:28:42;;;;;;;6.17;5.77;;;16.20;98.20;;;;;;5030633;28;21079;-76
2023/03/29 12:31:15;;;;;;;5.50;4.97;;;16.30;98.10;;;;;;5014278;28;20433;-78
2023/03/29 12:34:17;;;;;;;5.43;4.03;;;16.40;97.70;;;;;;5033736;28;20443;-77
2023/03/29 12:36:48;;;;;;;4.73;4.33;;;16.40;97.70;;;;;;5008107;28;20927;-76
2023/03/29 12:39:16;;;;;;;4.70;4.30;;;16.30;97.30;;;;;;5030434;28;20561;-77
2023/03/29 12:41:47;;;;;;;4.50;4.20;;;16.20;97.40;;;;;;5045436;28;20463;-77
2023/03/29 12:44:16;;;;;;;6.30;5.30;;;16.20;97.70;;;;;;5041973;28;20951;-76
2023/03/29 12:46:42;;;;;;;6.90;6.30;;;16.20;97.40;;;;;;5033769;28;20416;-76
2023/03/29 12:49:26;;;;;;;6.23;5.77;;;16.00;98.20;;;;;;5033731;28;20477;-75
2023/03/29 12:51:56;;;;;;;6.60;5.40;;;15.90;97.90;;;;;;5051423;28;20457;-76
2023/03/29 12:54:25;;;;;;;6.30;5.80;;;15.80;98.70;;;;;;5048297;28;20452;-78
2023/03/29 12:56:51;;;;;;;4.70;4.30;;;15.80;99.30;;;;;;5033386;28;20399;-78
2023/03/29 12:59:46;;;;;;;8.17;5.27;;;15.70;99.80;;;;;;5031698;28;20980;-77
2023/03/29 13:02:21;;;;;;;6.60;6.03;;;15.60;99.30;;;;;;5025587;28;20864;-77
2023/03/29 13:04:59;;;;;;;6.30;5.90;;;15.40;99.90;;;;;;5053120;28;20398;-76
2023/03/29 13:07:45;;;;;;;7.37;5.53;;;15.50;99.90;;;;;;5036453;28;20459;-76
2023/03/29 13:10:38;;;;;;;6.40;5.80;;;15.40;99.90;;;;;;5035787;28;20509;-76
2023/03/29 13:13:22;;;;;;;6.93;6.20;;;15.40;99.90;;;;;;5045270;28;20433;-78